createdAt,value
2023-04-26T00:01:05.201Z,4.38
2023-04-26T00:02:08.343Z,4.18
2023-04-26T00:03:13.415Z,3.92
2023-04-26T00:04:15.559Z,3.00
2023-04-26T00:05:19.646Z,3.38
2023-04-26T00:06:21.534Z,3.97
2023-04-26T00:07:24.732Z,4.00
2023-04-26T00:08:26.564Z,4.13
2023-04-26T00:09:29.409Z,3.97
2023-04-26T00:10:31.619Z,3.60
2023-04-26T00:11:34.544Z,3.95
2023-04-26T00:12:36.896Z,4.03
2023-04-26T00:13:39.642Z,3.63
2023-04-26T00:14:41.477Z,5.03
2023-04-26T00:15:44.200Z,4.05
2023-04-26T00:16:46.261Z,4.10
2023-04-26T00:17:50.648Z,4.10
2023-04-26T00:18:52.696Z,3.90
2023-04-26T00:19:57.553Z,4.10
2023-04-26T00:20:59.400Z,3.50
2023-04-26T00:22:02.182Z,4.35
2023-04-26T00:23:05.014Z,4.88
2023-04-26T00:24:07.864Z,4.15
2023-04-26T00:25:11.308Z,4.20
2023-04-26T00:26:13.103Z,4.43
2023-04-26T00:27:15.941Z,4.25
2023-04-26T00:28:17.730Z,4.70
2023-04-26T00:29:21.028Z,3.70
2023-04-26T00:30:22.974Z,3.92
2023-04-26T00:31:25.882Z,3.97
2023-04-26T00:32:27.899Z,4.43
2023-04-26T00:33:32.126Z,4.80
2023-04-26T00:34:34.196Z,4.60
2023-04-26T00:35:36.924Z,4.93
2023-04-26T00:36:39.053Z,4.65
2023-04-26T00:37:42.286Z,4.55
2023-04-26T00:38:44.078Z,4.47
2023-04-26T00:39:46.865Z,4.65
2023-04-26T00:40:48.878Z,5.32
2023-04-26T00:41:52.307Z,4.25
2023-04-26T00:42:57.357Z,4.70
2023-04-26T00:44:00.145Z,4.43
2023-04-26T00:45:02.109Z,4.38
2023-04-26T00:46:05.047Z,4.72
2023-04-26T00:47:06.934Z,4.53
2023-04-26T00:48:09.781Z,4.25
2023-04-26T00:49:17.177Z,4.13
2023-04-26T00:50:20.618Z,4.40
2023-04-26T00:51:22.402Z,4.28
2023-04-26T00:52:25.432Z,4.68
2023-04-26T00:53:27.320Z,4.63
2023-04-26T00:54:30.242Z,4.57
2023-04-26T00:55:32.112Z,4.30
2023-04-26T00:56:35.027Z,4.45
2023-04-26T00:57:36.841Z,4.28
2023-04-26T00:58:39.951Z,4.18
2023-04-26T00:59:41.837Z,4.60
2023-04-26T01:00:44.691Z,4.28
2023-04-26T01:01:47.980Z,4.18
2023-04-26T01:02:51.256Z,4.00
2023-04-26T01:03:53.190Z,4.70
2023-04-26T01:04:58.499Z,4.50
2023-04-26T01:06:00.382Z,4.20
2023-04-26T01:07:03.293Z,4.05
2023-04-26T01:08:08.356Z,4.32
2023-04-26T01:09:14.799Z,4.18
2023-04-26T01:10:17.840Z,4.60
2023-04-26T01:11:20.260Z,4.80
2023-04-26T01:12:24.155Z,4.63
2023-04-26T01:13:26.715Z,4.13
2023-04-26T01:14:29.737Z,4.72
2023-04-26T01:15:33.423Z,4.35
2023-04-26T01:16:36.561Z,5.30
2023-04-26T01:17:38.568Z,4.93
2023-04-26T01:18:42.989Z,3.92
2023-04-26T01:19:47.912Z,4.30
2023-04-26T01:20:53.023Z,4.25
2023-04-26T01:21:54.890Z,4.70
2023-04-26T01:22:59.008Z,4.97
2023-04-26T01:24:01.322Z,4.82
2023-04-26T01:25:07.648Z,4.97
2023-04-26T01:26:09.404Z,4.57
2023-04-26T01:27:12.117Z,4.68
2023-04-26T01:28:16.049Z,4.13
2023-04-26T01:29:19.827Z,5.57
2023-04-26T01:30:21.601Z,5.15
2023-04-26T01:31:24.814Z,5.35
2023-04-26T01:32:26.892Z,4.82
2023-04-26T01:33:29.704Z,4.65
2023-04-26T01:34:33.184Z,4.93
2023-04-26T01:35:35.920Z,4.97
2023-04-26T01:36:37.890Z,5.07
2023-04-26T01:37:40.756Z,5.63
2023-04-26T01:38:43.868Z,5.40
2023-04-26T01:39:46.628Z,4.50
2023-04-26T01:40:48.421Z,9.23
2023-04-26T01:41:51.307Z,5.57
2023-04-26T01:42:54.032Z,6.15
2023-04-26T01:43:55.959Z,4.97
2023-04-26T01:44:58.710Z,5.80
2023-04-26T01:46:00.485Z,5.28
2023-04-26T01:47:06.517Z,5.80
2023-04-26T01:48:08.844Z,5.05
2023-04-26T01:49:11.705Z,5.10
2023-04-26T01:50:13.549Z,5.40
2023-04-26T01:51:16.617Z,5.20
2023-04-26T01:52:18.379Z,5.55
2023-04-26T01:53:22.106Z,4.85
2023-04-26T01:54:25.498Z,4.80
2023-04-26T01:55:29.100Z,5.10
2023-04-26T01:56:31.268Z,4.78
2023-04-26T01:57:36.597Z,5.25
2023-04-26T01:58:38.431Z,5.75
2023-04-26T01:59:41.235Z,5.07
2023-04-26T02:00:42.980Z,5.15
2023-04-26T02:01:46.893Z,4.43
2023-04-26T02:02:48.829Z,4.40
2023-04-26T02:03:51.741Z,4.40
2023-04-26T02:04:54.876Z,4.13
2023-04-26T02:06:00.352Z,4.80
2023-04-26T02:07:03.895Z,4.72
2023-04-26T02:08:06.858Z,3.95
2023-04-26T02:09:11.640Z,4.63
2023-04-26T02:10:18.020Z,4.15
2023-04-26T02:11:20.165Z,3.80
2023-04-26T02:12:23.017Z,4.03
2023-04-26T02:13:25.138Z,3.92
2023-04-26T02:14:27.852Z,4.30
2023-04-26T02:15:29.739Z,3.92
2023-04-26T02:16:32.664Z,3.97
2023-04-26T02:17:34.617Z,3.80
2023-04-26T02:18:37.439Z,4.30
2023-04-26T02:19:39.232Z,3.92
2023-04-26T02:20:43.146Z,4.05
2023-04-26T02:21:52.713Z,3.72
2023-04-26T02:22:55.551Z,3.60
2023-04-26T02:23:57.466Z,3.55
2023-04-26T02:25:00.252Z,3.63
2023-04-26T02:26:04.450Z,3.63
2023-04-26T02:27:07.624Z,5.53
2023-04-26T02:28:09.851Z,4.03
2023-04-26T02:29:12.604Z,4.15
2023-04-26T02:30:14.551Z,3.97
2023-04-26T02:31:17.709Z,4.68
2023-04-26T02:32:19.931Z,4.10
2023-04-26T02:33:22.784Z,4.63
2023-04-26T02:34:24.754Z,3.80
2023-04-26T02:35:28.145Z,3.33
2023-04-26T02:36:30.057Z,3.95
2023-04-26T02:37:33.520Z,4.20
2023-04-26T02:38:36.453Z,3.92
2023-04-26T02:39:40.755Z,4.32
2023-04-26T02:40:42.608Z,3.75
2023-04-26T02:41:49.224Z,4.43
2023-04-26T02:42:51.342Z,3.92
2023-04-26T02:43:54.115Z,4.35
2023-04-26T02:44:56.016Z,4.40
2023-04-26T02:46:01.066Z,4.68
2023-04-26T02:47:03.069Z,4.45
2023-04-26T02:48:06.914Z,4.07
2023-04-26T02:49:08.859Z,5.10
2023-04-26T02:50:12.344Z,4.60
2023-04-26T02:51:14.480Z,5.43
2023-04-26T02:52:17.272Z,4.50
2023-04-26T02:53:19.091Z,5.80
2023-04-26T02:54:21.964Z,6.05
2023-04-26T02:55:25.122Z,5.65
2023-04-26T02:56:27.939Z,5.25
2023-04-26T02:57:31.760Z,5.25
2023-04-26T02:58:34.611Z,5.03
2023-04-26T02:59:36.580Z,6.22
2023-04-26T03:00:39.777Z,4.57
2023-04-26T03:01:41.828Z,3.97
2023-04-26T03:02:44.699Z,5.07
2023-04-26T03:03:46.674Z,4.72
2023-04-26T03:04:49.474Z,4.70
2023-04-26T03:05:51.299Z,4.45
2023-04-26T03:06:54.369Z,4.95
2023-04-26T03:07:56.496Z,4.50
2023-04-26T03:08:59.373Z,4.47
2023-04-26T03:10:01.924Z,4.35
2023-04-26T03:11:05.638Z,4.80
2023-04-26T03:12:08.111Z,4.68
2023-04-26T03:13:13.411Z,3.95
2023-04-26T03:14:15.646Z,4.00
2023-04-26T03:15:18.605Z,4.22
2023-04-26T03:16:20.768Z,4.80
2023-04-26T03:17:23.605Z,5.05
2023-04-26T03:18:25.941Z,4.28
2023-04-26T03:19:29.220Z,4.13
2023-04-26T03:20:31.557Z,3.90
2023-04-26T03:21:34.998Z,4.70
2023-04-26T03:22:36.909Z,4.85
2023-04-26T03:23:40.652Z,4.40
2023-04-26T03:24:42.760Z,4.15
2023-04-26T03:25:45.572Z,4.32
2023-04-26T03:26:47.676Z,4.65
2023-04-26T03:27:51.009Z,8.10
2023-04-26T03:28:54.522Z,4.55
2023-04-26T03:29:57.533Z,4.35
2023-04-26T03:30:59.520Z,6.30
2023-04-26T03:32:02.363Z,6.35
2023-04-26T03:33:04.414Z,6.60
2023-04-26T03:34:07.983Z,6.35
2023-04-26T03:35:10.349Z,7.30
2023-04-26T03:36:13.168Z,5.45
2023-04-26T03:37:14.944Z,4.32
2023-04-26T03:38:19.855Z,4.57
2023-04-26T03:39:22.191Z,5.07
2023-04-26T03:40:24.910Z,4.47
2023-04-26T03:41:26.730Z,5.15
2023-04-26T03:42:30.845Z,5.88
2023-04-26T03:43:32.738Z,5.57
2023-04-26T03:44:38.176Z,5.82
2023-04-26T03:45:40.011Z,5.38
2023-04-26T03:46:42.982Z,5.78
2023-04-26T03:47:44.828Z,4.50
2023-04-26T03:48:47.665Z,5.65
2023-04-26T03:49:49.489Z,4.65
2023-04-26T03:50:52.300Z,4.85
2023-04-26T03:51:54.072Z,4.22
2023-04-26T03:52:56.871Z,5.20
2023-04-26T03:53:58.757Z,6.43
2023-04-26T03:55:01.836Z,5.00
2023-04-26T03:56:03.650Z,4.93
2023-04-26T03:57:08.454Z,5.03
2023-04-26T03:58:10.265Z,5.07
2023-04-26T03:59:13.291Z,5.07
2023-04-26T04:00:16.780Z,4.75
2023-04-26T04:01:20.220Z,4.95
2023-04-26T04:02:22.049Z,4.85
2023-04-26T04:03:25.469Z,5.20
2023-04-26T04:04:27.701Z,5.95
2023-04-26T04:05:30.712Z,6.70
2023-04-26T04:06:33.450Z,6.07
2023-04-26T04:07:37.407Z,6.40
2023-04-26T04:08:39.284Z,6.40
2023-04-26T04:09:42.114Z,5.85
2023-04-26T04:10:44.454Z,5.30
2023-04-26T04:11:47.754Z,6.50
2023-04-26T04:12:49.945Z,6.10
2023-04-26T04:13:52.794Z,6.50
2023-04-26T04:14:54.627Z,5.30
2023-04-26T04:16:04.971Z,5.43
2023-04-26T04:17:07.411Z,5.45
2023-04-26T04:18:10.445Z,5.30
2023-04-26T04:19:12.375Z,5.45
2023-04-26T04:20:15.570Z,5.30
2023-04-26T04:21:17.894Z,5.45
2023-04-26T04:22:20.727Z,5.53
2023-04-26T04:23:22.518Z,6.82
2023-04-26T04:24:25.621Z,6.10
2023-04-26T04:25:27.581Z,5.50
2023-04-26T04:26:34.294Z,5.07
2023-04-26T04:27:36.868Z,5.25
2023-04-26T04:28:41.354Z,5.07
2023-04-26T04:29:43.115Z,5.38
2023-04-26T04:30:46.851Z,5.72
2023-04-26T04:31:50.764Z,5.95
2023-04-26T04:32:53.730Z,5.82
2023-04-26T04:33:56.791Z,5.70
2023-04-26T04:34:58.995Z,5.53
2023-04-26T04:36:01.907Z,5.35
2023-04-26T04:37:04.342Z,5.65
2023-04-26T04:38:09.160Z,4.85
2023-04-26T04:39:16.009Z,5.80
2023-04-26T04:40:20.104Z,5.78
2023-04-26T04:41:23.723Z,5.20
2023-04-26T04:42:28.255Z,4.78
2023-04-26T04:43:33.860Z,5.38
2023-04-26T04:44:36.931Z,6.30
2023-04-26T04:45:40.056Z,5.45
2023-04-26T04:46:42.054Z,5.40
2023-04-26T04:47:46.400Z,5.78
2023-04-26T04:48:48.558Z,4.75
2023-04-26T04:49:53.011Z,5.50
2023-04-26T04:50:55.845Z,4.75
2023-04-26T04:51:58.612Z,5.70
2023-04-26T04:53:00.601Z,4.93
2023-04-26T04:54:10.883Z,5.72
2023-04-26T04:55:13.416Z,5.63
2023-04-26T04:56:18.413Z,4.97
2023-04-26T04:57:20.674Z,5.72
2023-04-26T04:58:24.222Z,5.50
2023-04-26T04:59:26.347Z,5.18
2023-04-26T05:00:29.270Z,5.43
2023-04-26T05:01:38.720Z,5.82
2023-04-26T05:02:47.492Z,5.68
2023-04-26T05:03:51.117Z,5.60
2023-04-26T05:04:55.448Z,5.45
2023-04-26T05:05:57.421Z,5.63
2023-04-26T05:07:02.012Z,4.60
2023-04-26T05:08:04.340Z,4.80
2023-04-26T05:09:07.126Z,5.22
2023-04-26T05:10:11.906Z,4.32
2023-04-26T05:11:14.665Z,4.65
2023-04-26T05:12:16.603Z,5.10
2023-04-26T05:13:19.503Z,4.05
2023-04-26T05:14:21.276Z,4.30
2023-04-26T05:15:24.049Z,3.85
2023-04-26T05:16:27.239Z,4.50
2023-04-26T05:17:30.963Z,3.90
2023-04-26T05:18:35.470Z,3.95
2023-04-26T05:19:38.312Z,3.70
2023-04-26T05:20:40.160Z,4.15
2023-04-26T05:21:42.963Z,2.78
2023-04-26T05:22:44.827Z,3.58
2023-04-26T05:23:48.147Z,2.85
2023-04-26T05:24:50.157Z,2.65
2023-04-26T05:25:53.077Z,3.42
2023-04-26T05:27:18.434Z,3.30
2023-04-26T05:28:29.131Z,2.60
2023-04-26T05:29:50.494Z,2.45
2023-04-26T05:31:20.034Z,3.00
2023-04-26T05:32:34.348Z,2.90
2023-04-26T05:33:58.704Z,3.08
2023-04-26T05:35:06.789Z,2.90
2023-04-26T05:36:11.051Z,2.78
2023-04-26T05:37:12.869Z,3.08
2023-04-26T05:38:15.740Z,3.03
2023-04-26T05:39:17.940Z,3.05
2023-04-26T05:40:20.701Z,2.50
2023-04-26T05:41:22.619Z,3.28
2023-04-26T05:42:25.554Z,2.88
2023-04-26T05:43:27.405Z,2.92
2023-04-26T05:44:30.270Z,3.13
2023-04-26T05:45:32.115Z,2.60
2023-04-26T05:46:36.381Z,2.50
2023-04-26T05:47:39.250Z,3.55
2023-04-26T05:48:41.124Z,2.78
2023-04-26T05:49:45.211Z,3.13
2023-04-26T05:50:47.067Z,2.72
2023-04-26T05:51:50.683Z,3.03
2023-04-26T05:52:52.483Z,3.20
2023-04-26T05:53:55.481Z,2.75
2023-04-26T05:54:57.627Z,2.95
2023-04-26T05:56:01.643Z,3.35
2023-04-26T05:57:03.948Z,3.13
2023-04-26T05:58:06.863Z,2.80
2023-04-26T05:59:08.800Z,3.20
2023-04-26T06:00:12.826Z,3.38
2023-04-26T06:01:19.378Z,3.30
2023-04-26T06:02:21.242Z,2.85
2023-04-26T06:03:24.514Z,3.53
2023-04-26T06:04:26.723Z,3.20
2023-04-26T06:05:41.517Z,3.20
2023-04-26T06:06:44.731Z,3.53
2023-04-26T06:07:46.517Z,2.90
2023-04-26T06:08:49.450Z,3.60
2023-04-26T06:09:51.469Z,2.95
2023-04-26T06:10:54.578Z,2.45
2023-04-26T06:11:57.017Z,3.08
2023-04-26T06:13:00.260Z,2.83
2023-04-26T06:14:04.678Z,3.10
2023-04-26T06:15:08.267Z,2.55
2023-04-26T06:16:13.548Z,3.10
2023-04-26T06:17:16.457Z,3.28
2023-04-26T06:18:19.580Z,2.85
2023-04-26T06:19:22.290Z,2.67
2023-04-26T06:20:25.071Z,2.90
2023-04-26T06:21:29.204Z,2.80
2023-04-26T06:22:33.826Z,2.80
2023-04-26T06:23:36.792Z,2.97
2023-04-26T06:24:38.628Z,3.10
2023-04-26T06:25:44.686Z,3.00
2023-04-26T06:26:47.232Z,4.63
2023-04-26T06:27:50.044Z,2.10
2023-04-26T06:28:51.887Z,3.30
2023-04-26T06:29:54.856Z,2.50
2023-04-26T06:30:58.987Z,3.65
2023-04-26T06:32:01.346Z,2.80
2023-04-26T06:33:05.324Z,3.38
2023-04-26T06:34:09.430Z,3.28
2023-04-26T06:35:11.402Z,3.22
2023-04-26T06:36:14.489Z,2.83
2023-04-26T06:37:18.363Z,2.92
2023-04-26T06:38:21.380Z,3.20
2023-04-26T06:39:24.209Z,2.95
2023-04-26T06:40:26.911Z,3.25
2023-04-26T06:41:29.732Z,3.45
2023-04-26T06:42:31.914Z,3.70
2023-04-26T06:43:54.210Z,2.83
2023-04-26T06:44:56.908Z,2.97
2023-04-26T06:45:59.731Z,2.65
2023-04-26T06:47:01.531Z,2.83
2023-04-26T06:48:05.268Z,2.40
2023-04-26T06:49:08.161Z,2.33
2023-04-26T06:50:11.844Z,2.53
2023-04-26T06:51:14.628Z,2.58
2023-04-26T06:52:18.702Z,2.55
2023-04-26T06:53:23.122Z,2.70
2023-04-26T06:54:31.247Z,2.50
2023-04-26T06:55:34.355Z,2.50
2023-04-26T06:56:37.168Z,2.22
2023-04-26T06:57:39.075Z,2.45
2023-04-26T06:58:59.020Z,2.70
2023-04-26T07:00:00.807Z,2.75
2023-04-26T07:01:03.715Z,2.80
2023-04-26T07:02:05.769Z,2.30
2023-04-26T07:03:08.712Z,2.30
2023-04-26T07:04:11.797Z,2.38
2023-04-26T07:05:15.284Z,2.50
2023-04-26T07:06:18.125Z,2.88
2023-04-26T07:07:22.402Z,2.28
2023-04-26T07:08:25.232Z,2.35
2023-04-26T07:09:28.050Z,2.60
2023-04-26T07:10:30.854Z,2.22
2023-04-26T07:11:33.600Z,1.92
2023-04-26T07:12:36.468Z,2.42
2023-04-26T07:13:42.249Z,2.55
2023-04-26T07:14:45.106Z,2.33
2023-04-26T07:15:47.906Z,2.35
2023-04-26T07:16:49.714Z,2.30
2023-04-26T07:17:52.507Z,3.05
2023-04-26T07:18:58.190Z,2.47
2023-04-26T07:20:00.035Z,2.63
2023-04-26T07:21:02.908Z,2.60
2023-04-26T07:22:05.637Z,2.80
2023-04-26T07:23:09.681Z,3.00
2023-04-26T07:24:13.510Z,2.53
2023-04-26T07:25:16.259Z,2.45
2023-04-26T07:26:18.958Z,2.45
2023-04-26T07:27:21.814Z,1.90
2023-04-26T07:28:23.724Z,2.20
2023-04-26T07:29:26.526Z,2.00
2023-04-26T07:30:29.509Z,4.47
2023-04-26T07:31:32.835Z,2.17
2023-04-26T07:32:36.301Z,2.35
2023-04-26T07:33:39.494Z,1.90
2023-04-26T07:34:41.969Z,2.28
2023-04-26T07:35:44.845Z,2.28
2023-04-26T07:36:47.779Z,1.75
2023-04-26T07:37:51.006Z,2.22
2023-04-26T07:38:55.112Z,2.17
2023-04-26T07:39:56.977Z,2.05
2023-04-26T07:41:01.181Z,2.08
2023-04-26T07:42:04.020Z,2.00
2023-04-26T07:43:06.147Z,1.83
2023-04-26T07:44:09.102Z,2.28
2023-04-26T07:45:11.981Z,1.73
2023-04-26T07:46:14.868Z,2.25
2023-04-26T07:47:16.896Z,1.95
2023-04-26T07:48:19.664Z,2.25
2023-04-26T07:49:22.529Z,2.13
2023-04-26T07:50:24.614Z,2.28
2023-04-26T07:51:27.939Z,2.20
2023-04-26T07:52:30.721Z,2.30
2023-04-26T07:53:32.879Z,2.33
2023-04-26T07:54:36.991Z,2.40
2023-04-26T07:55:39.801Z,2.20
2023-04-26T07:56:42.682Z,2.45
2023-04-26T07:57:44.511Z,2.90
2023-04-26T07:58:47.351Z,2.20
2023-04-26T07:59:49.231Z,3.00
2023-04-26T08:00:52.108Z,2.38
2023-04-26T08:01:54.897Z,2.50
2023-04-26T08:02:56.810Z,2.90
2023-04-26T08:04:00.063Z,1.92
2023-04-26T08:05:02.614Z,2.30
2023-04-26T08:06:05.844Z,2.55
2023-04-26T08:07:09.053Z,2.50
2023-04-26T08:08:12.545Z,2.03
2023-04-26T08:09:15.284Z,2.22
2023-04-26T08:10:18.526Z,4.07
2023-04-26T08:11:21.809Z,2.10
2023-04-26T08:12:23.621Z,2.45
2023-04-26T08:13:29.151Z,2.22
2023-04-26T08:14:31.331Z,3.65
2023-04-26T08:15:34.305Z,2.83
2023-04-26T08:16:37.061Z,3.53
2023-04-26T08:17:38.983Z,4.10
2023-04-26T08:18:43.394Z,3.30
2023-04-26T08:19:46.447Z,2.50
2023-04-26T08:20:49.246Z,5.25
2023-04-26T08:21:51.124Z,3.30
2023-04-26T08:22:56.801Z,3.83
2023-04-26T08:23:58.650Z,2.50
2023-04-26T08:25:01.448Z,2.75
2023-04-26T08:26:06.479Z,4.07
2023-04-26T08:27:08.805Z,3.15
2023-04-26T08:28:14.451Z,2.20
2023-04-26T08:29:18.614Z,2.45
2023-04-26T08:30:21.258Z,3.80
2023-04-26T08:31:24.066Z,2.92
2023-04-26T08:32:26.408Z,2.40
2023-04-26T08:33:29.247Z,2.20
2023-04-26T08:34:30.988Z,2.72
2023-04-26T08:35:33.758Z,4.32
2023-04-26T08:36:37.514Z,1.92
2023-04-26T08:37:39.420Z,2.42
2023-04-26T08:38:42.497Z,1.90
2023-04-26T08:41:01.840Z,2.97
2023-04-26T08:42:14.526Z,2.83
2023-04-26T08:43:36.165Z,2.40
2023-04-26T08:44:37.993Z,2.33
2023-04-26T08:45:42.072Z,2.10
2023-04-26T08:46:48.410Z,2.00
2023-04-26T08:47:52.223Z,2.85
2023-04-26T08:49:00.564Z,2.00
2023-04-26T08:50:04.771Z,2.40
2023-04-26T08:51:08.566Z,2.15
2023-04-26T08:52:11.670Z,2.10
2023-04-26T08:53:16.404Z,3.00
2023-04-26T08:54:20.597Z,4.93
2023-04-26T08:55:23.575Z,4.32
2023-04-26T08:56:27.560Z,2.10
2023-04-26T08:57:33.421Z,1.73
2023-04-26T08:58:35.996Z,1.80
2023-04-26T08:59:39.492Z,1.88
2023-04-26T09:00:43.186Z,2.63
2023-04-26T09:01:46.032Z,2.45
2023-04-26T09:02:51.109Z,3.13
2023-04-26T09:03:56.709Z,1.90
2023-04-26T09:04:59.023Z,1.70
2023-04-26T09:06:04.651Z,1.80
2023-04-26T09:07:07.327Z,1.90
2023-04-26T09:08:10.087Z,2.10
2023-04-26T09:09:14.621Z,1.98
2023-04-26T09:10:19.540Z,2.25
2023-04-26T09:11:22.379Z,1.92
2023-04-26T09:12:24.689Z,2.25
2023-04-26T09:13:30.766Z,2.10
2023-04-26T09:14:32.630Z,1.90
2023-04-26T09:15:35.613Z,2.70
2023-04-26T09:16:37.697Z,1.90
2023-04-26T09:17:42.048Z,2.17
2023-04-26T09:18:48.041Z,1.73
2023-04-26T09:19:50.801Z,3.00
2023-04-26T09:21:03.935Z,1.80
2023-04-26T09:22:08.769Z,2.45
2023-04-26T09:23:11.681Z,2.90
2023-04-26T09:24:14.000Z,2.95
2023-04-26T09:25:18.150Z,2.92
2023-04-26T09:26:21.623Z,2.55
2023-04-26T09:27:33.700Z,3.15
2023-04-26T09:28:37.380Z,2.65
2023-04-26T09:29:40.119Z,3.17
2023-04-26T09:30:42.948Z,2.28
2023-04-26T09:31:48.664Z,2.25
2023-04-26T09:32:53.991Z,2.88
2023-04-26T09:33:59.164Z,3.05
2023-04-26T09:35:01.956Z,3.58
2023-04-26T09:36:11.889Z,2.00
2023-04-26T09:37:14.881Z,1.80
2023-04-26T09:38:18.904Z,1.88
2023-04-26T09:39:31.706Z,2.47
2023-04-26T09:40:35.790Z,2.33
2023-04-26T09:41:45.784Z,1.42
2023-04-26T09:42:47.788Z,1.40
2023-04-26T09:43:53.652Z,1.50
2023-04-26T09:45:07.123Z,1.33
2023-04-26T09:46:09.886Z,1.58
2023-04-26T09:47:12.429Z,2.67
2023-04-26T09:48:17.213Z,1.98
2023-04-26T09:49:19.015Z,1.90
2023-04-26T09:50:29.227Z,3.03
2023-04-26T09:51:32.228Z,2.00
2023-04-26T09:52:43.771Z,1.70
2023-04-26T09:53:48.396Z,1.40
2023-04-26T09:54:53.155Z,1.70
2023-04-26T09:55:56.530Z,1.85
2023-04-26T09:57:01.673Z,2.05
2023-04-26T09:58:09.961Z,2.22
2023-04-26T09:59:14.177Z,1.67
2023-04-26T10:00:16.679Z,2.40
2023-04-26T10:01:20.662Z,2.60
2023-04-26T10:02:24.835Z,2.28
2023-04-26T10:03:27.955Z,2.80
2023-04-26T10:04:30.131Z,2.85
2023-04-26T10:05:34.137Z,3.00
2023-04-26T10:06:36.966Z,1.75
2023-04-26T10:07:39.223Z,1.85
2023-04-26T10:08:42.091Z,2.63
2023-04-26T10:09:44.430Z,1.58
2023-04-26T10:10:48.029Z,1.85
2023-04-26T10:11:49.830Z,2.78
2023-04-26T10:12:52.556Z,1.73
2023-04-26T10:13:55.995Z,1.30
2023-04-26T10:15:00.215Z,1.15
2023-04-26T10:16:02.375Z,1.65
2023-04-26T10:17:05.895Z,1.70
2023-04-26T10:18:09.478Z,1.85
2023-04-26T10:19:11.880Z,2.50
2023-04-26T10:20:14.880Z,3.22
2023-04-26T10:21:21.168Z,3.67
2023-04-26T10:22:25.374Z,1.90
2023-04-26T10:23:28.260Z,1.60
2023-04-26T10:24:30.204Z,2.10
2023-04-26T10:25:37.342Z,2.08
2023-04-26T10:26:48.828Z,1.67
2023-04-26T10:27:52.766Z,2.90
2023-04-26T10:28:59.879Z,3.20
2023-04-26T10:30:10.533Z,3.42
2023-04-26T10:31:13.491Z,1.70
2023-04-26T10:32:18.052Z,2.00
2023-04-26T10:33:21.495Z,1.60
2023-04-26T10:34:23.392Z,1.70
2023-04-26T10:35:27.165Z,1.30
2023-04-26T10:36:30.005Z,1.52
2023-04-26T10:37:31.968Z,1.50
2023-04-26T10:38:35.377Z,1.63
2023-04-26T10:39:37.552Z,1.75
2023-04-26T10:40:41.612Z,1.52
2023-04-26T10:41:44.373Z,1.30
2023-04-26T10:42:47.108Z,1.55
2023-04-26T10:43:49.987Z,1.40
2023-04-26T10:44:53.334Z,1.58
2023-04-26T10:45:57.001Z,1.92
2023-04-26T10:46:59.978Z,1.80
2023-04-26T10:48:17.371Z,2.03
2023-04-26T10:49:25.693Z,1.92
2023-04-26T10:50:29.130Z,1.65
2023-04-26T10:51:31.808Z,1.42
2023-04-26T10:52:35.121Z,1.80
2023-04-26T10:53:58.262Z,1.65
2023-04-26T10:55:02.264Z,1.85
2023-04-26T10:56:04.365Z,1.60
2023-04-26T10:57:07.288Z,1.88
2023-04-26T10:58:27.836Z,1.98
2023-04-26T10:59:43.289Z,1.92
2023-04-26T11:01:06.346Z,1.70
2023-04-26T11:02:10.376Z,1.70
2023-04-26T11:03:13.279Z,1.48
2023-04-26T11:04:15.275Z,1.75
2023-04-26T11:05:38.715Z,1.58
2023-04-26T11:06:51.416Z,1.50
2023-04-26T11:08:03.961Z,1.40
2023-04-26T11:09:37.076Z,2.00
2023-04-26T11:10:39.030Z,1.67
2023-04-26T11:11:53.346Z,1.10
2023-04-26T11:13:00.236Z,1.20
2023-04-26T11:14:03.068Z,1.02
2023-04-26T11:15:05.404Z,1.50
2023-04-26T11:16:10.388Z,1.30
2023-04-26T11:17:13.156Z,1.35
2023-04-26T11:18:20.255Z,1.00
2023-04-26T11:19:23.077Z,1.13
2023-04-26T11:20:29.465Z,1.40
2023-04-26T11:21:32.722Z,1.33
2023-04-26T11:22:34.815Z,1.88
2023-04-26T11:23:37.743Z,1.40
2023-04-26T11:24:39.559Z,1.50
2023-04-26T11:25:42.411Z,1.48
2023-04-26T11:26:52.436Z,1.70
2023-04-26T11:27:59.975Z,1.77
2023-04-26T11:29:03.393Z,1.25
2023-04-26T11:30:06.833Z,1.42
2023-04-26T11:31:11.710Z,1.73
2023-04-26T11:32:14.386Z,1.57
2023-04-26T11:33:18.767Z,1.70
2023-04-26T11:34:22.894Z,1.80
2023-04-26T11:35:25.964Z,1.60
2023-04-26T11:36:29.938Z,1.47
2023-04-26T11:37:31.727Z,2.00
2023-04-26T11:38:34.629Z,3.40
2023-04-26T11:39:36.959Z,1.60
2023-04-26T11:40:39.817Z,2.60
2023-04-26T11:41:42.563Z,2.38
2023-04-26T11:42:44.668Z,2.05
2023-04-26T11:43:47.386Z,2.17
2023-04-26T11:44:51.548Z,1.77
2023-04-26T11:45:59.755Z,2.60
2023-04-26T11:47:04.755Z,1.42
2023-04-26T11:48:09.037Z,1.35
2023-04-26T11:49:11.109Z,1.60
2023-04-26T11:50:14.058Z,2.30
2023-04-26T11:51:16.820Z,2.47
2023-04-26T11:52:18.950Z,1.88
2023-04-26T11:53:21.732Z,1.50
2023-04-26T11:54:31.452Z,1.50
2023-04-26T11:55:34.207Z,2.60
2023-04-26T11:56:36.901Z,3.33
2023-04-26T11:57:38.764Z,2.40
2023-04-26T11:58:41.555Z,2.03
2023-04-26T11:59:43.449Z,3.05
2023-04-26T12:00:58.997Z,1.30
2023-04-26T12:02:08.794Z,1.77
2023-04-26T12:03:11.980Z,1.58
2023-04-26T12:04:14.092Z,1.80
2023-04-26T12:05:27.000Z,1.83
2023-04-26T12:06:42.599Z,1.48
2023-04-26T12:07:50.070Z,1.83
2023-04-26T12:08:53.342Z,1.80
2023-04-26T12:09:55.350Z,1.63
2023-04-26T12:11:00.781Z,1.25
2023-04-26T12:12:04.110Z,1.60
2023-04-26T12:13:06.847Z,3.85
2023-04-26T12:14:11.405Z,1.77
2023-04-26T12:15:15.629Z,1.02
2023-04-26T12:16:26.199Z,1.08
2023-04-26T12:17:30.313Z,1.52
2023-04-26T12:18:33.674Z,1.35
2023-04-26T12:19:36.554Z,1.35
2023-04-26T12:20:41.203Z,1.67
2023-04-26T12:21:43.760Z,1.20
2023-04-26T12:23:04.659Z,1.70
2023-04-26T12:24:07.908Z,1.55
2023-04-26T12:25:10.508Z,1.77
2023-04-26T12:26:13.216Z,2.15
2023-04-26T12:27:21.016Z,1.58
2023-04-26T12:28:24.791Z,1.50
2023-04-26T12:29:27.820Z,1.33
2023-04-26T12:30:31.319Z,1.40
2023-04-26T12:31:39.347Z,1.73
2023-04-26T12:32:43.469Z,1.85
2023-04-26T12:33:46.374Z,1.60
2023-04-26T12:34:48.174Z,1.20
2023-04-26T12:35:51.162Z,1.10
2023-04-26T12:36:53.008Z,1.23
2023-04-26T12:37:57.006Z,1.60
2023-04-26T12:38:58.766Z,1.60
2023-04-26T12:40:01.502Z,1.63
2023-04-26T12:41:04.505Z,2.67
2023-04-26T12:42:06.488Z,1.50
2023-04-26T12:43:09.649Z,1.90
2023-04-26T12:44:12.116Z,1.40
2023-04-26T12:45:14.923Z,1.70
2023-04-26T12:46:18.135Z,1.50
2023-04-26T12:47:19.946Z,1.83
2023-04-26T12:48:24.211Z,1.45
2023-04-26T12:49:26.084Z,2.28
2023-04-26T12:50:28.946Z,2.00
2023-04-26T12:51:33.830Z,2.13
2023-04-26T12:52:36.743Z,2.45
2023-04-26T12:53:38.564Z,2.53
2023-04-26T12:54:41.410Z,1.10
2023-04-26T12:55:45.139Z,1.50
2023-04-26T12:56:48.171Z,1.50
2023-04-26T12:57:50.896Z,1.40
2023-04-26T12:58:53.669Z,1.58
2023-04-26T12:59:55.915Z,1.65
2023-04-26T13:00:58.645Z,1.70
2023-04-26T13:02:00.488Z,1.50
2023-04-26T13:03:04.031Z,1.40
2023-04-26T13:04:07.535Z,3.42
2023-04-26T13:05:10.973Z,1.83
2023-04-26T13:06:12.941Z,2.17
2023-04-26T13:07:16.125Z,1.73
2023-04-26T13:08:19.076Z,1.60
2023-04-26T13:09:20.895Z,2.00
2023-04-26T13:10:23.716Z,1.88
2023-04-26T13:11:26.571Z,1.60
2023-04-26T13:12:28.548Z,1.60
2023-04-26T13:13:42.352Z,1.67
2023-04-26T13:14:46.485Z,1.80
2023-04-26T13:15:49.362Z,2.25
2023-04-26T13:16:52.359Z,1.40
2023-04-26T13:17:55.101Z,1.42
2023-04-26T13:18:58.014Z,1.52
2023-04-26T13:20:01.143Z,1.60
2023-04-26T13:21:04.242Z,1.55
2023-04-26T13:22:08.198Z,1.60
2023-04-26T13:23:11.556Z,1.40
2023-04-26T13:24:13.367Z,1.42
2023-04-26T13:25:18.969Z,1.70
2023-04-26T13:26:21.707Z,1.60
2023-04-26T13:27:24.451Z,1.60
2023-04-26T13:28:29.503Z,1.45
2023-04-26T13:29:32.046Z,1.40
2023-04-26T13:30:34.784Z,1.70
2023-04-26T13:31:36.926Z,1.50
2023-04-26T13:32:39.802Z,1.80
2023-04-26T13:33:42.202Z,1.70
2023-04-26T13:34:45.636Z,1.50
2023-04-26T13:35:49.787Z,1.50
2023-04-26T13:36:52.028Z,1.70
2023-04-26T13:37:54.800Z,1.55
2023-04-26T13:38:56.526Z,1.20
2023-04-26T13:39:59.987Z,1.60
2023-04-26T13:41:02.664Z,1.60
2023-04-26T13:42:07.005Z,3.17
2023-04-26T13:43:09.778Z,2.30
2023-04-26T13:44:11.725Z,4.55
2023-04-26T13:45:14.668Z,1.63
2023-04-26T13:46:16.435Z,1.63
2023-04-26T13:47:19.264Z,2.13
2023-04-26T13:48:21.100Z,3.00
2023-04-26T13:49:26.252Z,2.75
2023-04-26T13:50:28.149Z,2.08
2023-04-26T13:51:34.104Z,3.25
2023-04-26T13:52:37.143Z,1.70
2023-04-26T13:53:39.999Z,2.00
2023-04-26T13:54:42.738Z,2.05
2023-04-26T13:55:44.537Z,1.40
2023-04-26T13:56:47.360Z,2.33
2023-04-26T13:57:50.107Z,1.45
2023-04-26T13:58:54.814Z,1.50
2023-04-26T13:59:57.594Z,1.45
2023-04-26T14:00:59.380Z,1.40
2023-04-26T14:02:02.163Z,1.50
2023-04-26T14:03:04.190Z,1.40
2023-04-26T14:04:10.014Z,1.30
2023-04-26T14:05:13.191Z,1.90
2023-04-26T14:06:15.182Z,1.40
2023-04-26T14:07:19.498Z,1.85
2023-04-26T14:08:21.278Z,1.45
2023-04-26T14:09:24.061Z,2.10
2023-04-26T14:10:26.221Z,2.35
2023-04-26T14:11:29.779Z,2.78